Sunday, June 17, 2018, 9:54 PM EDT
Back to Local

KNHK, Nas Patuxent River Md

Location: Patuxent River, MD, United States Lat: 38.3
Local Time: 9:54 PM EDT ( 1:54 GMT) Lon: -76.4
Time Zone: US/Eastern Elev: 39 ft

Show me the last for .
Show Decoded

2018-06-17 20:52 METAR KNHK 180052Z AUTO 14005KT 10SM SCT100 28/23 A3006 RMK AO2 SLP179 T02780228
                 $ =
2018-06-17 19:52 METAR KNHK 172352Z AUTO 15006KT 10SM OVC090 29/22 A3005 RMK AO2 SLP175 T02940217
                 10322 20294 53001 $ =
2018-06-17 18:52 METAR KNHK 172252Z AUTO 14008KT 10SM CLR 30/21 A3004 RMK AO2 SLP172 T03000206 $
                 =
2018-06-17 17:52 METAR KNHK 172152Z 13008KT 10SM FEW050 FEW090 SCT280 31/19 A3003 RMK AO2 SLP170
                 CB DSNT S T03110189 $ =
2018-06-17 16:52 METAR KNHK 172052Z 15005KT 10SM FEW050 FEW090 SCT280 32/17 A3005 RMK AO2 SLP174
                 T03170172 58010 $ =
2018-06-17 15:52 METAR KNHK 171952Z 13008KT 10SM FEW050 FEW110 SCT280 32/17 A3006 RMK AO2 SLP179
                 T03170167 $ =
2018-06-17 14:52 METAR KNHK 171852Z 14008KT 10SM FEW045 FEW280 32/17 A3007 RMK AO2 SLP181
                 T03220172 $ =
2018-06-17 13:52 METAR KNHK 171752Z 13008KT 10SM FEW040 FEW280 31/18 A3008 RMK AO2 SLP184
                 T03110178 10317 20261 56007 $ =
2018-06-17 12:52 METAR KNHK 171652Z 13007KT 10SM FEW030 FEW280 31/21 A3008 RMK AO2 SLP186
                 T03060211 $ =
2018-06-17 11:52 METAR KNHK 171552Z 15005KT 10SM FEW030 FEW110 SCT280 29/21 A3009 RMK AO2 SLP190
                 T02940211 $ =
2018-06-17 10:52 METAR KNHK 171452Z 11006KT 10SM FEW110 FEW280 28/22 A3010 RMK AO2 SLP192
                 T02830217 51013 $ =
2018-06-17 09:52 METAR KNHK 171352Z 10004KT 10SM FEW110 SCT280 27/21 A3009 RMK AO2 SLP190
                 T02720211 $ =
2018-06-17 08:52 METAR KNHK 171252Z 10004KT 10SM FEW100 FEW280 27/21 A3007 RMK AO2 SLP183
                 T02720211 $ =
2018-06-17 07:52 METAR KNHK 171152Z 00000KT 10SM BKN090 BKN280 27/20 A3006 RMK AO2 SLP179
                 T02670200 10267 20222 51013 $ =
2018-06-17 06:52 METAR KNHK 171052Z AUTO 00000KT 10SM FEW075 OVC090 24/19 A3005 RMK AO2 SLP175
                 T02440189 $ =
2018-06-17 05:52 METAR KNHK 170952Z AUTO 20006KT 10SM OVC090 24/18 A3004 RMK AO2 SLP171 T02390183
                 $ =
2018-06-17 04:52 METAR KNHK 170852Z AUTO 00000KT 10SM BKN090 24/18 A3002 RMK AO2 SLP166 T02390178
                 56009 $ =
2018-06-17 03:52 METAR KNHK 170752Z AUTO 22004KT 10SM CLR 24/18 A3002 RMK AO2 SLP167 T02390178 $
                 =
2018-06-17 02:52 METAR KNHK 170652Z AUTO 00000KT 10SM CLR 22/17 A3003 RMK AO2 SLP171 T02220172 $
                 =
2018-06-17 01:52 METAR KNHK 170552Z AUTO 00000KT 10SM CLR 23/17 A3005 RMK AO2 SLP175 T02330167
                 10267 20228 58001 $ =
2018-06-17 00:52 METAR KNHK 170452Z AUTO 17003KT 10SM CLR 23/17 A3006 RMK AO2 SLP178 T02330167
                 402940167 $ =
2018-06-16 23:52 METAR KNHK 170352Z AUTO 17005KT 10SM CLR 24/17 A3006 RMK AO2 SLP178 T02390167 $
                 =
2018-06-16 22:52 METAR KNHK 170252Z AUTO 17005KT 10SM CLR 24/16 A3005 RMK AO2 SLP176 T02440156
                 53010 $ =

Support USWX by starting your Amazon purchase here.